Time;durP1;ratioP1;P1;durP2;ratioP2;P2;SDS_P1;SDS_P2;PMS_P1;PMS_P2;Temp;Humidity;BMP_temperature;BMP_pressure;BME280_temperature;BME280_humidity;BME280_pressure;Samples;Min_cycle;Max_cycle;Signal;HPM_P1;HPM_P2
2022/10/29 00:01:52;;;;;;;13.43;8.83;;;;;;;;;;1729451;83;21100;-61
2022/10/29 00:04:18;;;;;;;15.03;9.28;;;;;;;;;;1729707;83;21044;-61
2022/10/29 00:06:47;;;;;;;12.82;8.05;;;;;;;;;;1722358;83;21574;-61
2022/10/29 00:09:13;;;;;;;12.75;8.15;;;;;;;;;;1731112;81;21072;-64
2022/10/29 00:11:40;;;;;;;16.17;9.10;;;;;;;;;;1759574;81;21064;-62
2022/10/29 00:14:07;;;;;;;14.65;9.13;;;;;;;;;;1759708;81;21032;-63
2022/10/29 00:16:36;;;;;;;15.05;8.90;;;;;;;;;;1752301;81;21076;-62
2022/10/29 00:19:03;;;;;;;16.65;8.30;;;;;;;;;;1707839;81;21538;-61
2022/10/29 00:21:29;;;;;;;15.65;8.40;;;;;;;;;;1716409;81;21092;-60
2022/10/29 00:23:55;;;;;;;11.40;7.60;;;;;;;;;;1713187;81;21096;-61
2022/10/29 00:26:22;;;;;;;11.25;7.65;;;;;;;;;;1713053;81;21056;-61
2022/10/29 00:28:50;;;;;;;12.37;7.45;;;;;;;;;;1714568;81;21048;-61
2022/10/29 00:31:17;;;;;;;15.25;7.92;;;;;;;;;;1716081;81;21064;-61
2022/10/29 00:33:45;;;;;;;10.75;7.75;;;;;;;;;;1710846;81;21056;-61
2022/10/29 00:36:13;;;;;;;11.53;8.00;;;;;;;;;;1714681;81;21064;-62
2022/10/29 00:38:40;;;;;;;12.93;8.53;;;;;;;;;;1712484;81;21589;-62
2022/10/29 00:41:07;;;;;;;14.60;8.13;;;;;;;;;;1712831;81;21060;-62
2022/10/29 00:43:34;;;;;;;11.18;7.67;;;;;;;;;;1714771;81;21044;-62
2022/10/29 00:46:08;;;;;;;12.20;7.92;;;;;;;;;;1717980;81;21048;-62
2022/10/29 00:48:35;;;;;;;12.25;7.30;;;;;;;;;;1694433;81;21076;-62
2022/10/29 00:51:02;;;;;;;12.70;7.70;;;;;;;;;;1714178;81;21547;-62
2022/10/29 00:53:30;;;;;;;11.38;7.78;;;;;;;;;;1714017;81;21119;-62
2022/10/29 00:55:56;;;;;;;13.58;8.15;;;;;;;;;;1723035;81;21036;-62
2022/10/29 00:58:22;;;;;;;22.93;9.10;;;;;;;;;;1716492;81;21072;-62
2022/10/29 01:00:48;;;;;;;15.63;8.78;;;;;;;;;;1741279;81;21071;-62
2022/10/29 01:03:14;;;;;;;14.60;8.13;;;;;;;;;;1731465;81;21140;-62
2022/10/29 01:05:41;;;;;;;11.35;8.20;;;;;;;;;;1726733;81;21118;-62
2022/10/29 01:08:07;;;;;;;13.55;9.15;;;;;;;;;;1698270;81;21598;-62
2022/10/29 01:10:39;;;;;;;11.70;8.00;;;;;;;;;;1723968;81;21060;-62
2022/10/29 01:13:07;;;;;;;12.10;8.43;;;;;;;;;;1722506;81;21101;-62
2022/10/29 01:15:35;;;;;;;11.65;7.95;;;;;;;;;;1721215;81;21048;-62
2022/10/29 01:18:12;;;;;;;14.40;8.00;;;;;;;;;;1726406;81;21072;-61
2022/10/29 01:20:43;;;;;;;13.90;7.70;;;;;;;;;;1728783;81;21056;-61
2022/10/29 01:23:17;;;;;;;13.50;8.00;;;;;;;;;;1733339;81;21095;-62
2022/10/29 01:25:46;;;;;;;12.58;7.90;;;;;;;;;;1727758;81;21033;-61
2022/10/29 01:28:14;;;;;;;12.15;8.00;;;;;;;;;;1720554;81;21064;-61
2022/10/29 01:30:45;;;;;;;14.00;8.50;;;;;;;;;;1734813;81;22300;-62
2022/10/29 01:33:16;;;;;;;15.32;8.23;;;;;;;;;;1741679;81;21115;-61
2022/10/29 01:35:47;;;;;;;14.15;7.72;;;;;;;;;;1726959;81;21122;-63
2022/10/29 01:38:25;;;;;;;16.97;7.83;;;;;;;;;;1735066;81;21047;-61
2022/10/29 01:40:56;;;;;;;13.08;7.87;;;;;;;;;;1742347;81;21554;-61
2022/10/29 01:43:25;;;;;;;11.33;7.42;;;;;;;;;;1728702;80;21120;-61
2022/10/29 01:46:02;;;;;;;11.30;7.30;;;;;;;;;;1710556;82;21056;-62
2022/10/29 01:48:30;;;;;;;11.43;7.45;;;;;;;;;;1713946;82;21054;-62
2022/10/29 01:50:57;;;;;;;11.70;7.85;;;;;;;;;;1713711;82;21107;-62
2022/10/29 01:53:24;;;;;;;13.58;8.40;;;;;;;;;;1712500;82;21044;-62
2022/10/29 01:55:51;;;;;;;11.75;7.80;;;;;;;;;;1719636;82;21530;-61
2022/10/29 01:58:18;;;;;;;11.90;7.72;;;;;;;;;;1712213;82;21127;-62
2022/10/29 02:03:35;;;;;;;10.78;7.47;;;;;;;;;;1677715;79;76491;-61
2022/10/29 02:06:06;;;;;;;12.55;7.37;;;;;;;;;;1670398;85;21015;-61
2022/10/29 02:08:40;;;;;;;12.25;7.35;;;;;;;;;;1675963;85;21052;-61
2022/10/29 02:11:15;;;;;;;11.50;7.80;;;;;;;;;;1676165;85;21067;-61
2022/10/29 02:13:43;;;;;;;14.25;8.80;;;;;;;;;;1675976;85;21075;-60
2022/10/29 02:16:09;;;;;;;11.00;7.40;;;;;;;;;;1676492;85;21052;-60
2022/10/29 02:18:39;;;;;;;11.35;7.53;;;;;;;;;;1676261;85;21052;-61
2022/10/29 02:21:07;;;;;;;14.55;8.35;;;;;;;;;;1676233;85;21099;-61
2022/10/29 02:23:33;;;;;;;14.60;8.58;;;;;;;;;;1675598;85;21036;-60
2022/10/29 02:26:00;;;;;;;12.33;8.43;;;;;;;;;;1676285;85;21080;-60
2022/10/29 02:28:26;;;;;;;12.35;7.92;;;;;;;;;;1675951;85;21044;-61
2022/10/29 02:30:52;;;;;;;13.75;7.97;;;;;;;;;;1676029;85;21100;-61
2022/10/29 02:33:20;;;;;;;16.82;7.85;;;;;;;;;;1676301;85;21351;-60
2022/10/29 02:35:46;;;;;;;13.70;8.58;;;;;;;;;;1675742;85;21071;-60
2022/10/29 02:38:12;;;;;;;12.47;8.13;;;;;;;;;;1675150;85;21032;-61
2022/10/29 02:40:39;;;;;;;15.85;8.53;;;;;;;;;;1672313;86;21060;-61
2022/10/29 02:43:05;;;;;;;15.10;8.98;;;;;;;;;;1643519;87;21670;-61
2022/10/29 02:45:31;;;;;;;14.25;8.73;;;;;;;;;;1671401;85;21630;-61
2022/10/29 02:47:57;;;;;;;14.58;8.65;;;;;;;;;;1676278;85;21092;-61
2022/10/29 02:50:23;;;;;;;12.00;8.05;;;;;;;;;;1675816;85;21092;-60
2022/10/29 02:52:50;;;;;;;12.95;8.48;;;;;;;;;;1675188;85;21123;-60
2022/10/29 02:55:16;;;;;;;14.33;8.80;;;;;;;;;;1675531;85;22086;-60
2022/10/29 02:57:43;;;;;;;13.90;8.88;;;;;;;;;;1671276;85;21124;-61
2022/10/29 03:00:10;;;;;;;12.88;8.13;;;;;;;;;;1671669;85;21079;-61
2022/10/29 03:02:36;;;;;;;12.90;8.18;;;;;;;;;;1677050;84;21048;-60
2022/10/29 03:05:03;;;;;;;12.58;7.78;;;;;;;;;;1704687;83;21044;-60
2022/10/29 03:07:37;;;;;;;13.45;8.63;;;;;;;;;;1704320;84;21096;-60
2022/10/29 03:10:04;;;;;;;12.68;7.78;;;;;;;;;;1704408;84;21028;-60
2022/10/29 03:12:30;;;;;;;14.40;7.95;;;;;;;;;;1704568;84;21514;-61
2022/10/29 03:14:56;;;;;;;15.93;8.23;;;;;;;;;;1704351;83;21091;-61
2022/10/29 03:17:23;;;;;;;12.95;8.40;;;;;;;;;;1704664;84;21103;-61
2022/10/29 03:19:50;;;;;;;12.40;8.58;;;;;;;;;;1704511;84;21025;-63
2022/10/29 03:22:17;;;;;;;14.83;8.35;;;;;;;;;;1705013;84;21547;-61
2022/10/29 03:24:44;;;;;;;14.85;7.95;;;;;;;;;;1703937;84;21080;-61
2022/10/29 03:27:10;;;;;;;12.20;7.50;;;;;;;;;;1704514;84;21546;-61
2022/10/29 03:29:37;;;;;;;11.38;7.83;;;;;;;;;;1704788;84;21056;-61
2022/10/29 03:32:03;;;;;;;13.20;8.18;;;;;;;;;;1704677;84;21059;-61
2022/10/29 03:34:29;;;;;;;12.20;7.83;;;;;;;;;;1704241;84;21511;-62
2022/10/29 03:36:55;;;;;;;15.00;8.40;;;;;;;;;;1704708;84;21567;-62
2022/10/29 03:39:21;;;;;;;11.55;7.12;;;;;;;;;;1704718;84;21072;-61
2022/10/29 03:41:47;;;;;;;10.25;7.15;;;;;;;;;;1704575;84;21079;-61
2022/10/29 03:44:14;;;;;;;14.63;8.08;;;;;;;;;;1704441;84;21076;-61
2022/10/29 03:46:40;;;;;;;12.35;7.33;;;;;;;;;;1704557;84;21036;-61
2022/10/29 03:49:06;;;;;;;14.83;7.80;;;;;;;;;;1703682;84;21087;-61
2022/10/29 03:51:33;;;;;;;14.10;8.63;;;;;;;;;;1704717;84;21032;-62
2022/10/29 03:53:59;;;;;;;12.20;7.97;;;;;;;;;;1672556;84;21590;-61
2022/10/29 03:56:26;;;;;;;12.45;8.18;;;;;;;;;;1672971;86;21070;-61
2022/10/29 03:58:52;;;;;;;12.58;8.35;;;;;;;;;;1643061;86;21105;-61
2022/10/29 04:01:18;;;;;;;13.80;8.75;;;;;;;;;;1673173;86;22117;-61
2022/10/29 04:03:44;;;;;;;13.95;8.58;;;;;;;;;;1649595;86;21136;-61
2022/10/29 04:06:11;;;;;;;15.72;9.03;;;;;;;;;;1665954;86;21595;-61
2022/10/29 04:08:38;;;;;;;11.65;7.83;;;;;;;;;;1670520;86;21041;-61
2022/10/29 04:11:04;;;;;;;11.78;7.83;;;;;;;;;;1672930;86;21104;-61
2022/10/29 04:13:31;;;;;;;12.95;8.55;;;;;;;;;;1671627;86;21624;-61
2022/10/29 04:15:57;;;;;;;15.20;8.58;;;;;;;;;;1669779;85;20990;-62
2022/10/29 04:18:23;;;;;;;12.55;8.55;;;;;;;;;;1683211;85;21082;-61
2022/10/29 04:20:52;;;;;;;15.58;9.13;;;;;;;;;;1680420;85;21552;-61
2022/10/29 04:23:19;;;;;;;14.85;8.93;;;;;;;;;;1646050;86;21087;-60
2022/10/29 04:25:50;;;;;;;13.55;8.05;;;;;;;;;;1640797;86;21637;-62
2022/10/29 04:28:17;;;;;;;14.70;8.68;;;;;;;;;;1665755;86;21126;-61
2022/10/29 04:30:43;;;;;;;14.07;8.50;;;;;;;;;;1661279;86;21057;-61
2022/10/29 04:33:09;;;;;;;14.33;8.83;;;;;;;;;;1661291;86;21113;-63
2022/10/29 04:35:35;;;;;;;12.33;8.23;;;;;;;;;;1651969;86;21547;-61
2022/10/29 04:38:08;;;;;;;14.68;7.95;;;;;;;;;;1672968;86;21078;-62
2022/10/29 04:40:34;;;;;;;18.00;9.07;;;;;;;;;;1673169;86;22152;-60
2022/10/29 04:43:02;;;;;;;14.85;8.68;;;;;;;;;;1673120;86;21071;-60
2022/10/29 04:45:28;;;;;;;13.20;8.65;;;;;;;;;;1672991;85;21103;-61
2022/10/29 04:47:59;;;;;;;16.05;8.90;;;;;;;;;;1660987;86;21072;-62
2022/10/29 04:50:26;;;;;;;16.27;9.45;;;;;;;;;;1671887;85;21074;-62
2022/10/29 04:52:58;;;;;;;15.38;8.98;;;;;;;;;;1671105;86;21081;-61
2022/10/29 04:55:25;;;;;;;18.15;8.88;;;;;;;;;;1657451;84;21104;-61
2022/10/29 04:57:51;;;;;;;12.10;8.25;;;;;;;;;;1670478;86;21103;-62
2022/10/29 05:00:17;;;;;;;24.72;14.38;;;;;;;;;;1672972;86;21072;-60
2022/10/29 05:02:48;;;;;;;26.85;14.30;;;;;;;;;;1666383;85;21233;-61
2022/10/29 05:05:18;;;;;;;30.02;16.40;;;;;;;;;;1656335;85;21576;-61
2022/10/29 05:07:45;;;;;;;30.05;16.45;;;;;;;;;;1660522;86;21093;-61
2022/10/29 05:10:11;;;;;;;33.85;17.27;;;;;;;;;;1661865;86;21060;-61
2022/10/29 05:12:37;;;;;;;21.95;11.63;;;;;;;;;;1664905;86;21090;-61
2022/10/29 05:15:05;;;;;;;16.80;10.63;;;;;;;;;;1665331;85;21546;-61
2022/10/29 05:17:35;;;;;;;16.17;9.98;;;;;;;;;;1661107;86;21061;-61
2022/10/29 05:20:02;;;;;;;16.57;9.35;;;;;;;;;;1661547;86;21036;-61
2022/10/29 05:22:28;;;;;;;17.67;9.15;;;;;;;;;;1661316;86;21078;-61
2022/10/29 05:24:54;;;;;;;15.43;9.00;;;;;;;;;;1663258;86;21556;-61
2022/10/29 05:27:20;;;;;;;15.88;8.98;;;;;;;;;;1666552;86;21065;-61
2022/10/29 05:29:47;;;;;;;16.37;9.58;;;;;;;;;;1672909;86;21131;-62
2022/10/29 05:32:13;;;;;;;20.62;11.18;;;;;;;;;;1673379;86;21052;-62
2022/10/29 05:34:39;;;;;;;20.10;11.35;;;;;;;;;;1673058;86;21595;-61
2022/10/29 05:37:05;;;;;;;22.67;11.88;;;;;;;;;;1672384;85;21068;-61
2022/10/29 05:39:31;;;;;;;17.80;11.33;;;;;;;;;;1654741;85;21073;-62
2022/10/29 05:41:57;;;;;;;21.93;15.95;;;;;;;;;;1672928;86;21108;-61
2022/10/29 05:44:23;;;;;;;18.05;10.38;;;;;;;;;;1662736;86;21056;-61
2022/10/29 05:46:49;;;;;;;17.42;10.72;;;;;;;;;;1639862;86;21080;-62
2022/10/29 05:49:16;;;;;;;17.85;11.22;;;;;;;;;;1667771;85;21029;-62
2022/10/29 05:51:42;;;;;;;16.55;9.90;;;;;;;;;;1668629;84;21036;-61
2022/10/29 05:54:08;;;;;;;15.38;9.98;;;;;;;;;;1672482;85;21095;-61
2022/10/29 05:56:35;;;;;;;19.90;10.93;;;;;;;;;;1672557;84;21080;-61
2022/10/29 05:59:01;;;;;;;17.30;10.35;;;;;;;;;;1664948;86;21096;-61
2022/10/29 06:01:27;;;;;;;20.52;10.48;;;;;;;;;;1664956;86;21096;-61
2022/10/29 06:03:53;;;;;;;20.52;11.53;;;;;;;;;;1649891;86;21156;-62
2022/10/29 06:06:20;;;;;;;19.90;11.15;;;;;;;;;;1659054;86;21057;-62
2022/10/29 06:08:46;;;;;;;18.02;10.60;;;;;;;;;;1653273;86;21051;-61
2022/10/29 06:11:13;;;;;;;16.62;10.53;;;;;;;;;;1672235;85;21120;-61
2022/10/29 06:13:39;;;;;;;18.12;10.90;;;;;;;;;;1646064;86;21094;-62
2022/10/29 06:16:06;;;;;;;20.88;11.70;;;;;;;;;;1667600;84;21101;-62
2022/10/29 06:18:33;;;;;;;17.50;10.32;;;;;;;;;;1678174;85;20988;-61
2022/10/29 06:20:59;;;;;;;19.02;10.40;;;;;;;;;;1645391;86;21049;-61
2022/10/29 06:23:27;;;;;;;21.07;10.50;;;;;;;;;;1661395;86;21048;-61
2022/10/29 06:25:53;;;;;;;19.52;11.08;;;;;;;;;;1642451;86;21056;-61
2022/10/29 06:28:19;;;;;;;20.57;11.83;;;;;;;;;;1675482;84;21512;-60
2022/10/29 06:30:48;;;;;;;20.60;10.88;;;;;;;;;;1671006;85;21009;-60
2022/10/29 06:33:15;;;;;;;18.60;11.10;;;;;;;;;;1643023;85;21099;-60
2022/10/29 06:35:41;;;;;;;18.90;11.03;;;;;;;;;;1660296;86;21103;-60
2022/10/29 06:39:52;;;;;;;15.78;9.93;;;;;;;;;;1810675;77;23465;-61
2022/10/29 06:42:18;;;;;;;17.17;9.58;;;;;;;;;;1772811;80;21049;-61
2022/10/29 06:44:44;;;;;;;17.55;9.55;;;;;;;;;;1784013;80;21036;-61
2022/10/29 06:47:11;;;;;;;16.75;10.13;;;;;;;;;;1790258;80;21035;-62
2022/10/29 06:49:38;;;;;;;18.65;10.05;;;;;;;;;;1772297;80;21080;-61
2022/10/29 06:52:04;;;;;;;14.68;8.83;;;;;;;;;;1756768;80;21618;-60
2022/10/29 06:54:31;;;;;;;14.98;9.80;;;;;;;;;;1792156;80;21043;-61
2022/10/29 06:56:57;;;;;;;15.80;8.35;;;;;;;;;;1785603;78;21087;-61
2022/10/29 06:59:23;;;;;;;14.38;9.50;;;;;;;;;;1795576;78;21031;-60
2022/10/29 07:01:49;;;;;;;17.45;9.93;;;;;;;;;;1779367;80;21052;-61
2022/10/29 07:04:17;;;;;;;15.58;9.78;;;;;;;;;;1747357;80;21105;-62
2022/10/29 07:06:43;;;;;;;15.20;9.28;;;;;;;;;;1755649;81;21040;-63
2022/10/29 07:09:09;;;;;;;16.42;9.80;;;;;;;;;;1762167;80;21027;-63
2022/10/29 07:11:36;;;;;;;16.00;9.45;;;;;;;;;;1748638;81;21540;-62
2022/10/29 07:14:04;;;;;;;15.50;8.70;;;;;;;;;;1758218;80;21000;-62
2022/10/29 07:16:30;;;;;;;15.63;8.73;;;;;;;;;;1730911;83;22154;-62
2022/10/29 07:18:56;;;;;;;17.02;9.38;;;;;;;;;;1746858;81;21021;-63
2022/10/29 07:21:23;;;;;;;16.65;9.60;;;;;;;;;;1748719;80;21809;-62
2022/10/29 07:23:51;;;;;;;16.75;10.60;;;;;;;;;;1742900;82;21058;-62
2022/10/29 07:26:17;;;;;;;16.02;9.35;;;;;;;;;;1747381;80;21051;-62
2022/10/29 07:28:43;;;;;;;15.58;9.63;;;;;;;;;;1748472;81;21532;-63
2022/10/29 07:31:10;;;;;;;18.25;9.28;;;;;;;;;;1759996;81;21008;-63
2022/10/29 07:33:36;;;;;;;14.45;8.65;;;;;;;;;;1752905;81;21013;-62
2022/10/29 07:36:03;;;;;;;13.85;9.75;;;;;;;;;;1752052;80;21089;-61
2022/10/29 07:38:30;;;;;;;13.95;8.85;;;;;;;;;;1718225;82;21622;-62
2022/10/29 07:40:56;;;;;;;15.05;9.00;;;;;;;;;;1700983;82;21025;-62
2022/10/29 07:43:22;;;;;;;17.20;9.50;;;;;;;;;;1727828;82;21015;-62
2022/10/29 07:45:49;;;;;;;12.78;8.33;;;;;;;;;;1692396;85;21052;-63
2022/10/29 07:48:15;;;;;;;19.27;9.70;;;;;;;;;;1694183;84;21076;-62
2022/10/29 07:50:43;;;;;;;16.12;9.18;;;;;;;;;;1716077;83;21108;-62
2022/10/29 07:53:09;;;;;;;17.20;10.48;;;;;;;;;;1725005;82;21132;-63
2022/10/29 07:55:36;;;;;;;16.15;9.93;;;;;;;;;;1702721;83;21067;-63
2022/10/29 07:58:04;;;;;;;18.73;10.95;;;;;;;;;;1725373;83;21579;-63
2022/10/29 08:00:32;;;;;;;14.43;9.43;;;;;;;;;;1724368;83;21091;-62
2022/10/29 08:02:59;;;;;;;16.07;9.23;;;;;;;;;;1724322;82;21184;-62
2022/10/29 08:05:27;;;;;;;15.40;8.60;;;;;;;;;;1679928;84;21026;-62
2022/10/29 08:07:54;;;;;;;17.35;8.38;;;;;;;;;;1713521;84;21472;-63
2022/10/29 08:10:20;;;;;;;15.15;9.33;;;;;;;;;;1707702;84;21032;-62
2022/10/29 08:12:51;;;;;;;14.87;9.45;;;;;;;;;;1729625;82;21531;-62
2022/10/29 08:15:18;;;;;;;14.43;9.53;;;;;;;;;;1725631;83;21021;-62
2022/10/29 08:17:45;;;;;;;15.25;9.68;;;;;;;;;;1725239;83;21024;-61
2022/10/29 08:20:11;;;;;;;16.32;9.65;;;;;;;;;;1698758;83;21083;-62
2022/10/29 08:22:37;;;;;;;14.07;8.78;;;;;;;;;;1728291;82;21515;-62
2022/10/29 08:25:04;;;;;;;14.30;9.08;;;;;;;;;;1724906;83;21052;-63
2022/10/29 08:27:30;;;;;;;15.75;8.75;;;;;;;;;;1736374;82;21057;-63
2022/10/29 08:29:57;;;;;;;16.10;8.55;;;;;;;;;;1670211;84;21072;-60
2022/10/29 08:32:25;;;;;;;16.10;8.78;;;;;;;;;;1667377;84;21047;-62
2022/10/29 08:34:51;;;;;;;14.40;8.70;;;;;;;;;;1688363;82;21053;-61
2022/10/29 08:37:17;;;;;;;12.50;8.18;;;;;;;;;;1702039;82;21073;-60
2022/10/29 08:39:43;;;;;;;11.57;7.67;;;;;;;;;;1709662;82;21040;-61
2022/10/29 08:42:13;;;;;;;13.35;8.50;;;;;;;;;;1701300;83;21030;-60
2022/10/29 08:44:58;;;;;;;11.80;7.83;;;;;;;;;;1712713;84;21037;-61
2022/10/29 08:47:25;;;;;;;11.55;7.22;;;;;;;;;;1706322;82;21566;-62
2022/10/29 08:50:02;;;;;;;13.28;7.65;;;;;;;;;;1718065;83;21049;-61
2022/10/29 08:52:29;;;;;;;12.65;7.60;;;;;;;;;;1749751;82;21145;-60
2022/10/29 08:55:14;;;;;;;14.40;7.85;;;;;;;;;;1752236;82;21076;-63
2022/10/29 08:57:41;;;;;;;13.00;6.55;;;;;;;;;;1702621;84;21011;-61
2022/10/29 09:00:18;;;;;;;12.85;7.35;;;;;;;;;;1705485;83;22357;-61
2022/10/29 09:02:44;;;;;;;14.15;8.68;;;;;;;;;;1752109;81;21052;-62
2022/10/29 09:05:13;;;;;;;15.98;7.67;;;;;;;;;;1745134;81;21563;-62
2022/10/29 09:07:43;;;;;;;12.93;8.33;;;;;;;;;;1732565;82;21159;-62
2022/10/29 09:10:11;;;;;;;11.65;7.12;;;;;;;;;;1731338;81;21551;-62
2022/10/29 09:12:45;;;;;;;11.78;6.70;;;;;;;;;;1753199;82;21504;-61
2022/10/29 09:15:16;;;;;;;14.68;7.28;;;;;;;;;;1768890;80;21052;-62
2022/10/29 09:17:53;;;;;;;12.68;7.90;;;;;;;;;;1755380;80;21039;-61
2022/10/29 09:20:24;;;;;;;10.15;7.03;;;;;;;;;;1743946;82;21050;-62
2022/10/29 09:22:56;;;;;;;11.40;6.95;;;;;;;;;;1751668;82;21035;-62
2022/10/29 09:25:36;;;;;;;11.83;6.75;;;;;;;;;;1754480;80;21087;-61
2022/10/29 09:28:04;;;;;;;13.90;7.47;;;;;;;;;;1688743;84;21100;-62
2022/10/29 09:30:30;;;;;;;13.55;7.97;;;;;;;;;;1714365;84;21088;-62
2022/10/29 09:33:08;;;;;;;10.68;6.87;;;;;;;;;;1708571;83;21101;-62
2022/10/29 09:35:39;;;;;;;12.13;6.75;;;;;;;;;;1750588;81;21076;-62
2022/10/29 09:38:07;;;;;;;12.37;7.28;;;;;;;;;;1753261;82;21131;-62
2022/10/29 09:40:36;;;;;;;11.50;6.83;;;;;;;;;;1756087;81;21087;-69
2022/10/29 09:43:06;;;;;;;9.85;6.12;;;;;;;;;;1755624;81;21507;-70
2022/10/29 09:45:33;;;;;;;10.40;6.97;;;;;;;;;;1748172;81;21044;-72
2022/10/29 09:48:05;;;;;;;12.45;6.87;;;;;;;;;;1756754;81;21051;-71
2022/10/29 09:50:34;;;;;;;11.33;7.28;;;;;;;;;;1755383;81;21575;-72
2022/10/29 09:53:01;;;;;;;11.18;7.20;;;;;;;;;;1755283;82;21043;-72
2022/10/29 09:55:28;;;;;;;12.30;7.40;;;;;;;;;;1733442;82;21073;-73
2022/10/29 09:57:54;;;;;;;12.75;7.15;;;;;;;;;;1755597;80;21529;-76
2022/10/29 10:00:22;;;;;;;12.18;7.72;;;;;;;;;;1755350;82;21040;-74
2022/10/29 10:02:53;;;;;;;14.93;7.55;;;;;;;;;;1755158;81;21159;-74
2022/10/29 10:05:21;;;;;;;13.08;7.75;;;;;;;;;;1755078;81;21028;-74
2022/10/29 10:08:07;;;;;;;11.78;7.97;;;;;;;;;;1755547;81;21053;-75
2022/10/29 10:10:34;;;;;;;21.62;14.10;;;;;;;;;;1717968;83;21032;-74
2022/10/29 10:13:01;;;;;;;24.72;16.40;;;;;;;;;;1710415;84;21009;-74
2022/10/29 10:15:28;;;;;;;29.82;18.55;;;;;;;;;;1709589;84;21569;-75
2022/10/29 10:18:01;;;;;;;18.82;10.38;;;;;;;;;;1752638;81;21556;-75
2022/10/29 10:20:32;;;;;;;12.98;9.58;;;;;;;;;;1752596;81;21602;-75
2022/10/29 10:22:58;;;;;;;12.82;8.18;;;;;;;;;;1740883;81;21012;-73
2022/10/29 10:25:32;;;;;;;13.65;8.20;;;;;;;;;;1758490;81;21023;-74
2022/10/29 10:28:00;;;;;;;11.85;7.40;;;;;;;;;;1733352;81;21076;-73
2022/10/29 10:30:28;;;;;;;12.33;7.30;;;;;;;;;;1724533;82;21057;-73
2022/10/29 10:32:57;;;;;;;10.72;7.85;;;;;;;;;;1727947;81;21168;-73
2022/10/29 10:35:27;;;;;;;15.85;8.85;;;;;;;;;;1757262;81;21078;-74
2022/10/29 10:37:54;;;;;;;11.05;7.47;;;;;;;;;;1735338;81;21509;-74
2022/10/29 10:40:21;;;;;;;14.28;8.25;;;;;;;;;;1727506;83;21074;-73
2022/10/29 10:42:47;;;;;;;15.60;8.20;;;;;;;;;;1729274;83;21073;-74
2022/10/29 10:45:14;;;;;;;11.50;7.42;;;;;;;;;;1729896;83;21044;-73
2022/10/29 10:47:42;;;;;;;12.88;8.43;;;;;;;;;;1734642;81;21034;-71
2022/10/29 10:50:10;;;;;;;12.25;7.58;;;;;;;;;;1739256;82;21061;-73
2022/10/29 10:52:37;;;;;;;10.53;7.50;;;;;;;;;;1734845;82;21065;-75
2022/10/29 10:55:05;;;;;;;15.53;7.35;;;;;;;;;;1740877;82;21001;-76
2022/10/29 10:57:33;;;;;;;12.13;7.30;;;;;;;;;;1692432;83;21017;-77
2022/10/29 11:00:01;;;;;;;10.70;7.50;;;;;;;;;;1742956;81;21482;-71
2022/10/29 11:02:47;;;;;;;13.32;6.78;;;;;;;;;;1748696;81;21582;-75
2022/10/29 11:05:16;;;;;;;10.30;7.45;;;;;;;;;;1746928;82;21021;-72
2022/10/29 11:07:47;;;;;;;12.10;6.87;;;;;;;;;;1733494;81;21072;-71
2022/10/29 11:10:13;;;;;;;11.48;7.03;;;;;;;;;;1728737;81;21029;-71
2022/10/29 11:12:42;;;;;;;14.95;7.42;;;;;;;;;;1731065;81;21528;-72
2022/10/29 11:15:12;;;;;;;13.32;8.13;;;;;;;;;;1723778;81;21469;-73
2022/10/29 11:17:46;;;;;;;15.30;7.67;;;;;;;;;;1739407;81;21093;-73
2022/10/29 11:20:13;;;;;;;;;;;;;;;;;;1717418;81;21085;-72
2022/10/29 11:22:48;;;;;;;12.10;7.53;;;;;;;;;;1739862;81;20103;-71
2022/10/29 11:25:16;;;;;;;11.10;7.50;;;;;;;;;;1741502;81;21088;-73
2022/10/29 11:27:44;;;;;;;12.68;7.58;;;;;;;;;;1740768;81;21029;-73
2022/10/29 11:30:12;;;;;;;14.80;7.22;;;;;;;;;;1722239;83;21065;-73
2022/10/29 11:32:58;;;;;;;12.63;7.70;;;;;;;;;;1721182;83;21034;-72
2022/10/29 11:35:28;;;;;;;11.60;7.00;;;;;;;;;;1721848;83;21560;-72
2022/10/29 11:37:55;;;;;;;9.18;6.40;;;;;;;;;;1729495;81;21009;-73
2022/10/29 11:40:22;;;;;;;10.23;7.17;;;;;;;;;;1737320;81;21033;-73
2022/10/29 11:42:48;;;;;;;11.55;6.45;;;;;;;;;;1760253;81;20993;-74
2022/10/29 11:45:16;;;;;;;9.95;6.37;;;;;;;;;;1760962;81;21579;-72
2022/10/29 11:48:01;;;;;;;11.20;7.15;;;;;;;;;;1761242;80;21016;-74
2022/10/29 11:50:41;;;;;;;11.50;6.85;;;;;;;;;;1762081;81;21503;-74
2022/10/29 11:53:18;;;;;;;9.58;6.45;;;;;;;;;;1761621;81;20984;-75
2022/10/29 11:55:52;;;;;;;12.90;7.47;;;;;;;;;;1761654;81;21038;-74
2022/10/29 11:58:20;;;;;;;11.33;7.08;;;;;;;;;;1746775;80;21057;-73
2022/10/29 12:00:54;;;;;;;12.65;7.10;;;;;;;;;;1724594;83;21067;-75
2022/10/29 12:03:33;;;;;;;13.65;7.53;;;;;;;;;;1717717;83;21068;-75
2022/10/29 12:06:04;;;;;;;13.03;7.58;;;;;;;;;;1713023;84;21108;-77
2022/10/29 12:08:49;;;;;;;11.90;7.37;;;;;;;;;;1714971;82;21050;-77
2022/10/29 12:11:32;;;;;;;12.98;7.05;;;;;;;;;;1723486;83;21039;-76
2022/10/29 12:14:16;;;;;;;14.35;8.25;;;;;;;;;;1641229;87;21133;-76
2022/10/29 12:16:57;;;;;;;14.58;9.23;;;;;;;;;;1698352;83;21084;-82
2022/10/29 12:19:41;;;;;;;12.40;8.90;;;;;;;;;;1719202;82;21049;-80
2022/10/29 12:22:13;;;;;;;15.50;8.08;;;;;;;;;;1693833;84;21076;-80
2022/10/29 12:24:47;;;;;;;13.00;8.78;;;;;;;;;;1703269;83;21072;-80
2022/10/29 12:27:32;;;;;;;11.83;8.23;;;;;;;;;;1724924;83;21128;-80
2022/10/29 12:30:00;;;;;;;9.85;6.97;;;;;;;;;;1724091;82;21076;-81
2022/10/29 12:32:31;;;;;;;11.38;7.72;;;;;;;;;;1721225;82;21056;-80
2022/10/29 12:35:01;;;;;;;13.40;7.55;;;;;;;;;;1722210;83;20993;-81
2022/10/29 12:37:33;;;;;;;9.73;7.35;;;;;;;;;;1724895;82;21024;-80
2022/10/29 12:40:02;;;;;;;13.72;7.80;;;;;;;;;;1682883;83;21049;-79
2022/10/29 12:42:30;;;;;;;11.85;7.58;;;;;;;;;;1674862;84;21062;-79
2022/10/29 12:45:16;;;;;;;10.00;6.67;;;;;;;;;;1688493;84;21010;-81
2022/10/29 12:47:53;;;;;;;9.65;6.83;;;;;;;;;;1762884;81;21509;-78
2022/10/29 12:50:37;;;;;;;11.88;6.78;;;;;;;;;;1754998;81;21100;-79
2022/10/29 12:53:05;;;;;;;12.90;7.08;;;;;;;;;;1722182;82;21490;-80
2022/10/29 12:55:32;;;;;;;11.18;6.92;;;;;;;;;;1718174;82;21021;-81
2022/10/29 12:57:58;;;;;;;10.28;6.75;;;;;;;;;;1736037;82;21899;-80
2022/10/29 13:00:26;;;;;;;11.78;7.15;;;;;;;;;;1747961;81;21069;-77
2022/10/29 13:02:53;;;;;;;11.73;6.72;;;;;;;;;;1747700;81;21088;-72
2022/10/29 13:05:24;;;;;;;11.68;6.67;;;;;;;;;;1748661;81;21098;-70
2022/10/29 13:07:57;;;;;;;13.13;7.60;;;;;;;;;;1745947;82;21493;-79
2022/10/29 13:10:28;;;;;;;11.68;7.33;;;;;;;;;;1759445;81;21054;-80
2022/10/29 13:12:55;;;;;;;11.18;7.42;;;;;;;;;;1739706;82;21045;-80
2022/10/29 13:15:22;;;;;;;15.68;8.18;;;;;;;;;;1746009;81;20992;-79
2022/10/29 13:17:48;;;;;;;10.80;6.58;;;;;;;;;;1744282;82;21028;-80
2022/10/29 13:20:24;;;;;;;10.70;6.92;;;;;;;;;;1702385;83;21061;-80
2022/10/29 13:22:53;;;;;;;12.95;7.15;;;;;;;;;;1737076;82;20993;-81
2022/10/29 13:25:28;;;;;;;11.73;7.03;;;;;;;;;;1741746;81;21045;-80
2022/10/29 13:27:54;;;;;;;13.70;8.23;;;;;;;;;;1736493;82;21095;-80
2022/10/29 13:30:24;;;;;;;14.35;9.75;;;;;;;;;;1743644;81;21076;-80
2022/10/29 13:32:49;;;;;;;9.75;5.85;;;;;;;;;;1740032;82;21049;-80
2022/10/29 13:35:20;;;;;;;16.40;9.58;;;;;;;;;;1740310;81;21346;-79
2022/10/29 13:37:48;;;;;;;13.75;8.43;;;;;;;;;;1743620;82;21068;-79
2022/10/29 13:40:31;;;;;;;12.10;7.85;;;;;;;;;;1738800;81;22357;-79
2022/10/29 13:43:03;;;;;;;12.07;7.70;;;;;;;;;;1728866;82;21056;-80
2022/10/29 13:45:30;;;;;;;13.75;8.78;;;;;;;;;;1730123;82;21096;-81
2022/10/29 13:47:57;;;;;;;17.32;8.40;;;;;;;;;;1690325;85;21064;-80
2022/10/29 13:50:23;;;;;;;16.65;9.23;;;;;;;;;;1693268;83;21036;-80
2022/10/29 13:52:50;;;;;;;10.80;7.17;;;;;;;;;;1727469;83;21115;-81
2022/10/29 13:55:16;;;;;;;9.00;6.80;;;;;;;;;;1738011;82;21009;-81
2022/10/29 13:57:44;;;;;;;11.00;7.25;;;;;;;;;;1726237;82;20965;-81
2022/10/29 14:00:12;;;;;;;10.15;6.78;;;;;;;;;;1722623;81;21063;-80
2022/10/29 14:02:44;;;;;;;12.33;7.08;;;;;;;;;;1728934;82;21096;-80
2022/10/29 14:05:13;;;;;;;11.65;6.65;;;;;;;;;;1730001;81;21059;-81
2022/10/29 14:07:57;;;;;;;12.23;6.65;;;;;;;;;;1736780;82;21026;-82
2022/10/29 14:10:26;;;;;;;10.20;7.05;;;;;;;;;;1741769;82;21058;-80
2022/10/29 14:12:56;;;;;;;12.78;7.03;;;;;;;;;;1743161;82;20973;-81
2022/10/29 14:15:23;;;;;;;15.60;7.65;;;;;;;;;;1739978;81;21448;-80
2022/10/29 14:17:49;;;;;;;13.78;8.20;;;;;;;;;;1734802;82;21092;-74
2022/10/29 14:20:23;;;;;;;11.68;7.33;;;;;;;;;;1735609;82;21038;-80
2022/10/29 14:22:49;;;;;;;13.88;8.20;;;;;;;;;;1741355;81;21040;-81
2022/10/29 14:25:28;;;;;;;14.03;8.28;;;;;;;;;;1740136;82;20983;-81
2022/10/29 14:28:12;;;;;;;16.60;8.75;;;;;;;;;;1737223;82;21015;-82
2022/10/29 14:30:38;;;;;;;15.68;8.00;;;;;;;;;;1732608;82;21031;-81
2022/10/29 14:33:19;;;;;;;12.88;8.28;;;;;;;;;;1736199;81;21079;-81
2022/10/29 14:35:45;;;;;;;15.13;8.28;;;;;;;;;;1738098;82;21085;-81
2022/10/29 14:38:12;;;;;;;14.40;7.75;;;;;;;;;;1694733;83;21120;-80
2022/10/29 14:40:38;;;;;;;12.35;7.20;;;;;;;;;;1745935;81;20997;-81
2022/10/29 14:43:04;;;;;;;13.93;7.87;;;;;;;;;;1756943;81;21033;-81